Time;durP1;ratioP1;P1;durP2;ratioP2;P2;SDS_P1;SDS_P2;PMS_P1;PMS_P2;Temp;Humidity;BMP_temperature;BMP_pressure;BME280_temperature;BME280_humidity;BME280_pressure;Samples;Min_cycle;Max_cycle;Signal;HPM_P1;HPM_P2
2021/08/28 00:00:21;;;;;;;;;1.50;1.25;;;;;18.50;56.15;101875.97;6183681;22;45343;-63
2021/08/28 00:02:46;;;;;;;;;3.25;1.50;;;;;18.47;56.34;101876.19;6183132;22;45276;-61
2021/08/28 00:05:13;;;;;;;;;2.75;2.00;;;;;18.42;56.44;101880.06;6183555;22;45228;-60
2021/08/28 00:07:39;;;;;;;;;1.00;1.00;;;;;18.39;56.87;101880.28;6183211;23;45277;-64
2021/08/28 00:10:08;;;;;;;;;2.75;1.50;;;;;18.33;56.50;101877.25;6183455;22;45330;-62
2021/08/28 00:12:33;;;;;;;;;1.75;1.50;;;;;18.29;57.13;101878.41;6183254;23;45253;-63
2021/08/28 00:15:00;;;;;;;;;4.25;2.00;;;;;18.25;56.92;101874.28;6183145;23;45238;-65
2021/08/28 00:17:32;;;;;;;;;3.00;0.50;;;;;18.20;57.21;101871.94;6183296;23;45537;-62
2021/08/28 00:19:59;;;;;;;;;4.50;1.75;;;;;18.13;57.32;101870.69;6182534;22;45314;-62
2021/08/28 00:22:25;;;;;;;;;3.00;2.00;;;;;18.09;57.58;101869.22;6181604;23;45286;-62
2021/08/28 00:24:50;;;;;;;;;2.00;1.00;;;;;18.03;57.64;101862.50;6183231;23;45156;-63
2021/08/28 00:27:16;;;;;;;;;5.00;2.00;;;;;17.99;58.11;101857.50;6183230;22;46207;-64
2021/08/28 00:29:41;;;;;;;;;2.50;1.00;;;;;17.96;58.00;101852.41;6183350;22;45266;-62
2021/08/28 00:32:07;;;;;;;;;3.50;0.50;;;;;17.93;58.19;101852.59;6182812;22;45279;-61
2021/08/28 00:34:32;;;;;;;;;4.00;2.00;;;;;17.88;58.52;101860.94;6183201;23;45070;-62
2021/08/28 00:36:58;;;;;;;;;1.25;1.00;;;;;17.87;58.62;101858.41;6182576;23;46144;-64
2021/08/28 00:39:23;;;;;;;;;3.25;2.75;;;;;17.84;58.87;101857.63;6183220;22;45233;-62
2021/08/28 00:41:49;;;;;;;;;3.00;2.00;;;;;17.85;58.70;101851.38;6183274;23;45312;-62
2021/08/28 00:44:14;;;;;;;;;4.00;1.00;;;;;17.84;59.07;101856.78;6183706;22;45148;-60
2021/08/28 00:46:39;;;;;;;;;3.25;1.50;;;;;17.82;58.96;101869.38;6183106;22;45438;-63
2021/08/28 00:49:05;;;;;;;;;3.00;2.00;;;;;17.78;59.09;101855.44;6183269;22;45321;-63
2021/08/28 00:51:30;;;;;;;;;2.00;1.00;;;;;17.74;59.17;101855.75;6182984;22;45259;-62
2021/08/28 00:53:56;;;;;;;;;2.75;1.00;;;;;17.70;59.56;101852.47;6182090;23;45201;-65
2021/08/28 00:56:21;;;;;;;;;1.75;1.75;;;;;17.69;59.48;101855.19;6182994;23;45275;-63
2021/08/28 00:58:47;;;;;;;;;3.25;1.75;;;;;17.69;59.32;101855.19;6183357;22;45337;-63
2021/08/28 01:01:18;;;;;;;;;1.75;1.75;;;;;17.67;59.70;101855.31;6183060;22;45240;-66
2021/08/28 01:03:49;;;;;;;;;3.00;2.00;;;;;17.61;59.99;101854.88;6183074;23;45584;-65
2021/08/28 01:06:22;;;;;;;;;3.75;2.75;;;;;17.57;59.97;101857.78;6182541;22;45305;-63
2021/08/28 01:08:57;;;;;;;;;5.00;2.00;;;;;17.54;60.12;101849.16;6182874;23;45322;-64
2021/08/28 01:11:42;;;;;;;;;3.50;2.00;;;;;17.53;60.10;101850.09;6182833;23;45299;-64
2021/08/28 01:14:14;;;;;;;;;0.75;0.75;;;;;17.52;60.33;101859.06;6183110;23;45251;-63
2021/08/28 01:16:51;;;;;;;;;1.25;1.25;;;;;17.49;60.59;101865.47;6182117;23;45593;-62
2021/08/28 01:19:27;;;;;;;;;1.25;1.00;;;;;17.47;60.60;101870.06;6182659;23;45334;-62
2021/08/28 01:21:54;;;;;;;;;3.00;2.00;;;;;17.48;60.62;101857.59;6181840;22;45323;-62
2021/08/28 01:24:20;;;;;;;;;3.00;2.00;;;;;17.47;60.65;101862.06;6182707;23;45244;-64
2021/08/28 01:27:01;;;;;;;;;5.25;2.00;;;;;17.48;60.62;101860.25;6182519;23;45200;-65
2021/08/28 01:29:32;;;;;;;;;2.25;1.50;;;;;17.50;60.78;101871.63;6182785;23;45357;-65
2021/08/28 01:31:59;;;;;;;;;4.00;2.50;;;;;17.52;60.91;101865.22;6182363;23;45184;-62
2021/08/28 01:34:26;;;;;;;;;1.50;1.25;;;;;17.51;60.90;101865.34;6182564;22;45432;-62
2021/08/28 01:36:54;;;;;;;;;1.25;1.25;;;;;17.53;60.67;101866.09;6182156;22;45245;-62
2021/08/28 01:39:20;;;;;;;;;3.00;1.50;;;;;17.55;60.84;101861.53;6180785;23;45530;-63
2021/08/28 01:41:53;;;;;;;;;3.25;1.00;;;;;17.54;60.90;101857.16;6182409;23;45191;-64
2021/08/28 01:44:20;;;;;;;;;3.00;2.00;;;;;17.54;61.24;101847.34;6182876;23;45209;-63
2021/08/28 01:46:45;;;;;;;;;1.25;1.25;;;;;17.57;61.04;101848.94;6182389;23;45133;-63
2021/08/28 01:49:13;;;;;;;;;4.00;1.00;;;;;17.57;61.07;101843.59;6182659;23;45164;-63
2021/08/28 01:51:43;;;;;;;;;3.25;1.75;;;;;17.59;60.92;101849.66;6181806;23;45245;-63
2021/08/28 01:54:09;;;;;;;;;2.25;2.25;;;;;17.59;60.85;101860.31;6181470;23;45305;-63
2021/08/28 01:56:35;;;;;;;;;3.00;2.00;;;;;17.60;60.95;101854.03;6182023;23;46163;-63
2021/08/28 01:59:02;;;;;;;;;1.75;1.75;;;;;17.59;60.97;101863.00;6182751;23;45170;-64
2021/08/28 02:01:28;;;;;;;;;2.00;2.00;;;;;17.55;60.98;101861.53;6182436;23;45147;-67
2021/08/28 02:03:54;;;;;;;;;5.25;3.00;;;;;17.55;61.08;101854.38;6182283;23;46024;-62
2021/08/28 02:06:43;;;;;;;;;2.75;1.25;;;;;17.57;61.19;101851.59;6182496;23;45262;-68
2021/08/28 02:09:31;;;;;;;;;2.00;1.00;;;;;17.54;61.31;101855.34;6182659;23;45333;-67
2021/08/28 02:12:00;;;;;;;;;4.50;2.00;;;;;17.50;61.32;101858.31;6181985;23;45342;-65
2021/08/28 02:14:55;;;;;;;;;4.00;4.00;;;;;17.49;61.63;101864.63;6182381;23;45267;-65
2021/08/28 02:17:24;;;;;;;;;2.25;1.75;;;;;17.48;61.55;101865.56;6182273;23;45262;-64
2021/08/28 02:19:50;;;;;;;;;3.75;2.75;;;;;17.46;61.60;101865.69;6182371;22;45249;-64
2021/08/28 02:22:19;;;;;;;;;2.75;1.50;;;;;17.45;61.59;101865.78;6182125;23;45102;-64
2021/08/28 02:24:49;;;;;;;;;3.75;2.00;;;;;17.43;61.75;101865.88;6182100;23;45393;-63
2021/08/28 02:27:29;;;;;;;;;0.00;0.00;;;;;17.42;61.74;101874.84;6181809;22;46160;-63
2021/08/28 02:29:55;;;;;;;;;7.00;2.00;;;;;17.39;61.81;101864.41;6182274;23;45214;-65
2021/08/28 02:32:22;;;;;;;;;2.00;2.00;;;;;17.36;61.83;101871.75;6182344;23;45338;-67
2021/08/28 02:34:50;;;;;;;;;4.00;1.75;;;;;17.34;62.09;101881.66;6182658;23;45234;-65
